Kotel'nich, Russia
Current Conditions -  °F | °C
As of 12:30 PM on Friday 19 Dec 2014 (Local Time) from UWKS Reporting Station
Overcast Overcast  
Wind Chill: 20°   Ceiling: 500
Heat Index: 28°   Visibility: 4mi
Dew Point: 27°   Wind: 9mph
Humidity: 93%   Direction: 210°SSW
Pressure: 29.85"   Gusts: NA
Location:  58.3°N, 48.35°E
Report Text: UWKS 190830Z 21004MPS 7000 BKN005 OVC066 M02/M03 Q1011 NOSIGRMK QBB160 QFE744 24920240
Loading
Personal Weather Stations






























Interactive Weather Map New forecast layout! Learn more

10-Day Weather Forecast

Advertisements
Track Severe Weather on mobile